createdAt,value
2023-01-25T00:01:31.152Z,3.60
2023-01-25T00:06:37.080Z,3.83
2023-01-25T00:11:39.535Z,3.78
2023-01-25T00:16:43.292Z,3.50
2023-01-25T00:21:45.514Z,3.30
2023-01-25T00:26:47.408Z,4.07
2023-01-25T00:32:50.291Z,3.70
2023-01-25T00:37:56.933Z,3.95
2023-01-25T00:43:03.084Z,3.30
2023-01-25T00:48:06.971Z,3.35
2023-01-25T00:53:12.069Z,3.47
2023-01-25T00:58:15.417Z,3.50
2023-01-25T01:03:17.693Z,3.00
2023-01-25T01:08:25.341Z,2.60
2023-01-25T01:13:31.751Z,2.92
2023-01-25T01:18:36.483Z,2.72
2023-01-25T01:23:39.532Z,2.83
2023-01-25T01:28:42.215Z,2.88
2023-01-25T01:33:44.455Z,2.88
2023-01-25T01:38:47.560Z,2.97
2023-01-25T01:49:27.721Z,2.08
2023-01-25T01:59:48.327Z,1.42
2023-01-25T02:05:40.906Z,1.60
2023-01-25T02:10:47.231Z,1.60
2023-01-25T02:15:56.378Z,2.20
2023-01-25T02:21:01.619Z,2.42
2023-01-25T02:26:07.134Z,3.00
2023-01-25T02:31:11.761Z,2.75
2023-01-25T02:36:32.274Z,3.22
2023-01-25T02:41:41.326Z,2.23
2023-01-25T02:46:53.637Z,2.42
2023-01-25T02:52:01.008Z,2.30
2023-01-25T02:57:05.441Z,2.50
2023-01-25T03:02:19.756Z,2.38
2023-01-25T03:07:28.599Z,2.83
2023-01-25T03:12:33.554Z,1.92
2023-01-25T03:17:37.690Z,2.08
2023-01-25T03:22:40.846Z,2.08
2023-01-25T03:27:44.591Z,2.10
2023-01-25T03:32:47.829Z,2.55
2023-01-25T03:37:55.761Z,2.08
2023-01-25T03:43:15.993Z,2.17
2023-01-25T03:48:24.697Z,1.60
2023-01-25T03:53:32.133Z,1.52
2023-01-25T03:58:47.991Z,1.80
2023-01-25T04:04:11.493Z,2.10
2023-01-25T04:09:17.942Z,1.88
2023-01-25T04:14:38.917Z,2.10
2023-01-25T04:19:51.261Z,1.85
2023-01-25T04:24:58.442Z,1.50
2023-01-25T04:30:04.632Z,2.30
2023-01-25T04:35:11.720Z,2.90
2023-01-25T04:40:16.593Z,3.58
2023-01-25T04:45:22.429Z,4.20
2023-01-25T04:50:25.155Z,4.35
2023-01-25T04:55:28.027Z,4.70
2023-01-25T05:18:54.350Z,5.85
2023-01-25T05:23:59.281Z,4.53
2023-01-25T05:29:01.661Z,5.35
2023-01-25T05:34:19.190Z,5.25
2023-01-25T05:39:22.282Z,5.68
2023-01-25T05:44:24.853Z,5.03
2023-01-25T05:49:27.363Z,5.95
2023-01-25T05:54:30.149Z,5.45
2023-01-25T05:59:37.967Z,5.15
2023-01-25T06:04:43.111Z,6.10
2023-01-25T06:09:45.852Z,5.93
2023-01-25T06:14:48.411Z,6.60
2023-01-25T06:19:50.249Z,5.72
2023-01-25T06:25:08.893Z,5.85
2023-01-25T06:30:15.117Z,6.45
2023-01-25T06:35:17.090Z,6.03
2023-01-25T06:40:20.332Z,6.72
2023-01-25T06:45:22.531Z,5.47
2023-01-25T06:50:25.822Z,6.55
2023-01-25T06:55:27.678Z,6.97
2023-01-25T07:00:29.776Z,7.70
2023-01-25T07:05:33.246Z,6.75
2023-01-25T07:10:36.442Z,6.63
2023-01-25T07:15:38.349Z,8.25
2023-01-25T07:20:40.189Z,7.60
2023-01-25T07:25:48.967Z,6.68
2023-01-25T07:30:57.247Z,7.78
2023-01-25T07:36:05.155Z,7.40
2023-01-25T07:41:07.082Z,13.90
2023-01-25T07:46:11.336Z,9.65
2023-01-25T07:51:22.795Z,7.28
2023-01-25T07:56:36.588Z,7.47
2023-01-25T08:01:39.922Z,7.88
2023-01-25T08:06:42.509Z,7.35
2023-01-25T08:11:44.587Z,7.45
2023-01-25T08:16:46.527Z,7.10
2023-01-25T08:21:50.433Z,6.60
2023-01-25T08:26:56.428Z,7.65
2023-01-25T08:37:08.999Z,5.95
2023-01-25T08:42:14.487Z,8.15
2023-01-25T08:47:20.249Z,7.60
2023-01-25T08:52:23.967Z,7.13
2023-01-25T08:57:28.368Z,7.45
2023-01-25T09:02:33.286Z,8.05
2023-01-25T09:07:38.919Z,7.45
2023-01-25T09:13:03.676Z,7.13
2023-01-25T09:18:05.662Z,7.57
2023-01-25T09:23:12.111Z,6.95
2023-01-25T09:28:15.117Z,6.88
2023-01-25T09:33:17.582Z,7.53
2023-01-25T09:44:14.535Z,6.95
2023-01-25T09:49:32.860Z,6.35
2023-01-25T09:54:46.972Z,7.72
2023-01-25T09:59:55.992Z,8.32
2023-01-25T10:05:31.481Z,7.53
2023-01-25T10:10:42.255Z,7.22
2023-01-25T10:15:54.993Z,7.53
2023-01-25T10:21:25.884Z,5.85
2023-01-25T10:26:37.494Z,7.28
2023-01-25T10:32:00.422Z,6.20
2023-01-25T10:37:14.632Z,7.00
2023-01-25T10:42:17.266Z,6.60
2023-01-25T10:47:22.142Z,6.65
2023-01-25T10:52:33.145Z,7.40
2023-01-25T11:02:53.934Z,7.70
2023-01-25T11:07:57.836Z,7.10
2023-01-25T11:13:15.626Z,6.28
2023-01-25T11:18:23.721Z,7.22
2023-01-25T11:23:27.102Z,7.40
2023-01-25T11:28:28.951Z,6.47
2023-01-25T11:33:32.514Z,6.45
2023-01-25T11:38:34.679Z,6.78
2023-01-25T11:43:51.411Z,6.35
2023-01-25T11:49:16.026Z,6.22
2023-01-25T11:54:46.510Z,7.05
2023-01-25T12:00:02.952Z,6.38
2023-01-25T12:05:25.471Z,6.15
2023-01-25T12:11:01.167Z,6.07
2023-01-25T12:16:24.252Z,6.35
2023-01-25T12:21:56.978Z,6.32
2023-01-25T12:27:29.394Z,7.07
2023-01-25T12:32:43.389Z,6.00
2023-01-25T12:37:48.108Z,6.35
2023-01-25T12:42:58.765Z,6.32
2023-01-25T12:48:16.189Z,6.68
2023-01-25T12:53:49.759Z,5.53
2023-01-25T12:59:07.282Z,5.57
2023-01-25T13:04:36.639Z,5.07
2023-01-25T13:09:59.593Z,4.40
2023-01-25T13:15:01.567Z,4.18
2023-01-25T13:25:27.829Z,4.50
2023-01-25T13:30:34.607Z,4.35
2023-01-25T13:35:41.052Z,4.50
2023-01-25T13:40:43.232Z,4.82
2023-01-25T13:45:49.162Z,3.92
2023-01-25T13:50:58.419Z,4.15
2023-01-25T13:56:01.030Z,3.25
2023-01-25T14:01:23.834Z,3.60
2023-01-25T14:06:33.452Z,4.65
2023-01-25T14:11:43.426Z,4.18
2023-01-25T14:17:02.379Z,3.70
2023-01-25T14:22:27.521Z,3.60
2023-01-25T14:27:30.574Z,3.30
2023-01-25T14:32:33.000Z,3.67
2023-01-25T14:37:42.543Z,2.83
2023-01-25T14:42:46.179Z,3.40
2023-01-25T14:47:59.137Z,3.47
2023-01-25T14:53:20.897Z,3.65
2023-01-25T14:58:24.616Z,4.40
2023-01-25T15:03:29.699Z,3.67
2023-01-25T15:08:48.828Z,3.42
2023-01-25T15:14:04.681Z,3.40
2023-01-25T15:19:50.096Z,3.30
2023-01-25T15:24:58.493Z,2.80
2023-01-25T15:30:13.660Z,2.90
2023-01-25T15:35:24.971Z,3.50
2023-01-25T15:40:26.834Z,3.60
2023-01-25T15:45:28.760Z,3.10
2023-01-25T15:50:32.239Z,3.60
2023-01-25T15:55:35.332Z,3.80
2023-01-25T16:00:40.148Z,4.07
2023-01-25T16:05:44.498Z,3.75
2023-01-25T16:11:00.391Z,3.65
2023-01-25T16:16:02.689Z,3.35
2023-01-25T16:21:05.326Z,3.90
2023-01-25T16:26:22.554Z,4.00
2023-01-25T16:31:32.433Z,4.18
2023-01-25T16:36:35.328Z,3.83
2023-01-25T16:46:46.218Z,4.00
2023-01-25T16:51:50.914Z,4.20
2023-01-25T16:56:57.034Z,3.92
2023-01-25T17:01:59.182Z,4.05
2023-01-25T17:07:04.196Z,4.40
2023-01-25T17:12:09.212Z,4.38
2023-01-25T17:17:15.013Z,4.60
2023-01-25T17:22:16.901Z,4.47
2023-01-25T17:27:23.278Z,5.47
2023-01-25T17:32:35.720Z,4.80
2023-01-25T17:37:46.669Z,4.55
2023-01-25T17:42:48.675Z,5.22
2023-01-25T17:47:51.001Z,5.20
2023-01-25T17:57:54.705Z,5.32
2023-01-25T18:02:58.478Z,6.50
2023-01-25T18:08:00.991Z,5.30
2023-01-25T18:13:05.095Z,5.15
2023-01-25T18:18:08.407Z,5.22
2023-01-25T18:23:11.052Z,5.05
2023-01-25T18:28:14.148Z,6.65
2023-01-25T18:33:19.542Z,6.22
2023-01-25T18:38:21.405Z,5.78
2023-01-25T18:43:24.073Z,6.32
2023-01-25T18:48:35.798Z,6.18
2023-01-25T18:53:42.249Z,6.38
2023-01-25T18:58:46.769Z,6.00
2023-01-25T19:03:52.862Z,6.07
2023-01-25T19:08:59.558Z,6.45
2023-01-25T19:14:04.302Z,5.45
2023-01-25T19:19:08.851Z,6.43
2023-01-25T19:24:16.251Z,7.10
2023-01-25T19:29:20.413Z,6.00
2023-01-25T19:34:22.477Z,6.75
2023-01-25T19:39:25.872Z,6.18
2023-01-25T19:44:28.945Z,6.28
2023-01-25T19:49:32.187Z,7.40
2023-01-25T19:54:34.072Z,6.82
2023-01-25T19:59:36.056Z,7.60
2023-01-25T20:04:44.985Z,7.35
2023-01-25T20:09:47.382Z,7.55
2023-01-25T20:14:53.039Z,7.70
2023-01-25T20:19:55.064Z,7.30
2023-01-25T20:24:58.059Z,7.90
2023-01-25T20:30:00.664Z,7.15
2023-01-25T20:35:06.081Z,7.60
2023-01-25T20:40:09.733Z,7.38
2023-01-25T20:45:17.391Z,7.70
2023-01-25T20:50:19.768Z,8.95
2023-01-25T20:55:31.703Z,8.75
2023-01-25T21:00:35.093Z,8.23
2023-01-25T21:05:51.271Z,9.00
2023-01-25T21:10:55.788Z,7.85
2023-01-25T21:16:11.832Z,8.55
2023-01-25T21:21:35.384Z,8.45
2023-01-25T21:26:40.695Z,7.85
2023-01-25T21:31:43.322Z,7.45
2023-01-25T21:36:47.812Z,9.00
2023-01-25T21:41:50.232Z,8.65
2023-01-25T21:52:24.008Z,7.68
2023-01-25T21:57:25.948Z,7.90
2023-01-25T22:02:28.127Z,6.95
2023-01-25T22:07:31.688Z,8.02
2023-01-25T22:12:34.708Z,8.02
2023-01-25T22:17:36.561Z,6.82
2023-01-25T22:22:38.453Z,7.05
2023-01-25T22:27:55.373Z,7.80
2023-01-25T22:32:57.247Z,8.25
2023-01-25T22:37:59.143Z,7.90
2023-01-25T22:43:01.055Z,7.82
2023-01-25T22:48:07.656Z,7.55
2023-01-25T22:53:09.613Z,7.57
2023-01-25T22:58:11.708Z,7.03
2023-01-25T23:03:13.580Z,7.70
2023-01-25T23:08:15.756Z,7.13
2023-01-25T23:13:17.666Z,6.32
2023-01-25T23:18:38.027Z,6.32
2023-01-25T23:23:39.886Z,6.97
2023-01-25T23:28:42.621Z,7.20
2023-01-25T23:33:46.323Z,7.25
2023-01-25T23:38:49.445Z,6.80
2023-01-25T23:43:51.316Z,7.07
2023-01-25T23:48:53.179Z,6.50
2023-01-25T23:53:56.022Z,5.40
2023-01-25T23:58:57.899Z,6.95
